Viking Sun — LAYT7 — position and weather

sailwx.info

Track history (hours):
 
Tides and Currents Weather Stations Pressure Air Temp Water Temp Dewpoint Dewpoint Depression Visibility Wind Speed Wind Dir Waves Ship Positions

Viking Sun

Last reported at 2019-Jun-16 13:39 UTC. Time now 2019-Jun-16 15:00 UTC.
Position N 54°10' E 012°06'.

Length 228 m; draft 6.8 m.

Type: Passenger vessel. MMSI: 257179000.

Date/timePositionNaut miles runAvg speedWind from/ knotsBaromVisibWave heightAir tempDewpointWater temp
2019-Jun-16 13:39N 54°10' E 012°06'0 0.0
2019-Jun-16 13:30N 54°10' E 012°06'0 0.0
2019-Jun-16 12:24N 54°10' E 012°06'0 0.0
2019-Jun-16 12:00N 54°10' E 012°06'0 0.0
2019-Jun-16 11:12N 54°10' E 012°06'0 0.0
2019-Jun-16 10:54N 54°10' E 012°06'0 0.0
2019-Jun-16 09:54N 54°10' E 012°06'0 0.0
2019-Jun-16 09:00N 54°10' E 012°06'0 0.0
2019-Jun-16 06:06N 54°10' E 012°06'0 0.0
2019-Jun-16 05:45N 54°10' E 012°06'0 0.0
2019-Jun-16 05:30N 54°10' E 012°06'0 0.0
2019-Jun-16 05:00N 54°10' E 012°06'0 0.0
2019-Jun-16 04:25N 54°10' E 012°06'2 4.0
2019-Jun-16 03:55N 54°12' E 012°05'4 9.4
2019-Jun-16 03:29N 54°16' E 012°02'714.4
2019-Jun-16 03:00N 54°22' E 011°56'511.2
2019-Jun-16 02:31N 54°26' E 012°04'714.5
2019-Jun-16 02:00N 54°31' E 012°12'815.5
2019-Jun-16 01:30N 54°38' E 012°18'816.6
2019-Jun-16 01:00N 54°43' E 012°30'7617.4
2019-Jun-15 20:39N 54°39' E 014°41'419.0
2019-Jun-15 20:26N 54°40' E 014°48'6518.9
2019-Jun-15 16:59N 54°50' E 016°40'1119.2
2019-Jun-15 16:24N 54°52' E 016°59'819.4
2019-Jun-15 16:01N 54°54' E 017°12'1019.3
2019-Jun-15 15:31N 54°56' E 017°28'919.0
2019-Jun-15 15:01N 54°57' E 017°44'918.8
2019-Jun-15 14:31N 54°58' E 018°01'1019.0
2019-Jun-15 14:00N 54°57' E 018°17'918.9
2019-Jun-15 13:30N 54°58' E 018°34'1019.3
2019-Jun-15 13:01N 54°51' E 018°47'1019.1
2019-Jun-15 12:30N 54°45' E 018°59'917.8
2019-Jun-15 12:01N 54°37' E 018°54'918.2
2019-Jun-15 11:31N 54°29' E 018°45'611.2
2019-Jun-15 11:00N 54°25' E 018°40'0 0.9
2019-Jun-15 10:30N 54°24' E 018°40'0 0.0
2019-Jun-15 10:00N 54°24' E 018°40'0 0.0
2019-Jun-15 09:27N 54°24' E 018°40'0 0.0
2019-Jun-15 09:00N 54°24' E 018°40'0 0.0
2019-Jun-15 08:30N 54°24' E 018°40'0 0.0
2019-Jun-15 08:00N 54°24' E 018°40'0 0.0
2019-Jun-15 07:30N 54°24' E 018°40'0 0.0
2019-Jun-15 07:00N 54°24' E 018°40'0 0.0
2019-Jun-15 06:30N 54°24' E 018°40'0 0.0
2019-Jun-15 06:00N 54°24' E 018°40'0 0.0
2019-Jun-15 05:30N 54°24' E 018°40'0 0.0
2019-Jun-15 05:00N 54°24' E 018°40'0 0.0
2019-Jun-15 04:30N 54°24' E 018°40'0 0.0
2019-Jun-15 04:00N 54°24' E 018°40'0 0.2
2019-Jun-15 03:30N 54°24' E 018°40'1 2.9
2019-Jun-15 03:01N 54°26' E 018°39'2 3.9
2019-Jun-15 02:31N 54°27' E 018°41'611.7
2019-Jun-15 02:00N 54°32' E 018°47'611.9
2019-Jun-15 01:31N 54°36' E 018°54'611.6
2019-Jun-15 01:01N 54°42' E 018°57'611.3
2019-Jun-15 00:31N 54°47' E 019°00'611.1
2019-Jun-15 00:00N 54°52' E 019°03'611.1
2019-Jun-14 23:30N 54°58' E 019°06'611.1
2019-Jun-14 23:01N 55°03' E 019°08'611.2
2019-Jun-14 22:31N 55°08' E 019°11'611.6
2019-Jun-14 22:00N 55°14' E 019°14'712.0
2019-Jun-14 21:27N 55°20' E 019°17'612.3
2019-Jun-14 21:00N 55°26' E 019°20'612.1
2019-Jun-14 20:30N 55°32' E 019°23'612.0
2019-Jun-14 20:00N 55°37' E 019°26'611.8
2019-Jun-14 19:30N 55°43' E 019°29'612.6
2019-Jun-14 19:00N 55°49' E 019°32'612.6
2019-Jun-14 18:30N 55°55' E 019°35'712.6
2019-Jun-14 17:58N 56°02' E 019°39'712.4
2019-Jun-14 17:26N 56°08' E 019°42'512.3
2019-Jun-14 17:00N 56°13' E 019°45'612.3
2019-Jun-14 16:30N 56°19' E 019°48'612.3
2019-Jun-14 15:59N 56°25' E 019°51'9112.3
2019-Jun-14 08:37N 57°51' E 020°40'10311.9
2019-Jun-14 00:00N 59°20' E 022°21'1412.7
2019-Jun-13 22:52N 59°21' E 022°49'512.7
2019-Jun-13 22:30N 59°22' E 022°58'613.1
2019-Jun-13 22:00N 59°23' E 023°11'713.6
2019-Jun-13 21:30N 59°25' E 023°24'713.5
2019-Jun-13 21:00N 59°26' E 023°37'713.4
2019-Jun-13 20:30N 59°28' E 023°50'713.2
2019-Jun-13 20:00N 59°29' E 024°02'713.3
2019-Jun-13 19:30N 59°30' E 024°15'713.8
2019-Jun-13 19:00N 59°30' E 024°29'713.3
2019-Jun-13 18:31N 59°32' E 024°41'510.3
2019-Jun-13 18:00N 59°27' E 024°46'0 0.5
2019-Jun-13 17:28N 59°27' E 024°46'0 0.0
2019-Jun-13 16:58N 59°27' E 024°46'0 0.0
2019-Jun-13 16:28N 59°27' E 024°46'0 0.0
2019-Jun-13 15:58N 59°27' E 024°46'0 0.0
2019-Jun-13 15:28N 59°27' E 024°46'0 0.0
2019-Jun-13 14:58N 59°27' E 024°46'0 0.0
2019-Jun-13 14:28N 59°27' E 024°46'0 0.0
2019-Jun-13 13:58N 59°27' E 024°46'0 0.0
2019-Jun-13 13:28N 59°27' E 024°46'0 0.0
2019-Jun-13 12:58N 59°27' E 024°46'0 0.0
2019-Jun-13 12:28N 59°27' E 024°46'0 0.0
2019-Jun-13 11:58N 59°27' E 024°46'0 0.0
2019-Jun-13 11:28N 59°27' E 024°46'0 0.0
2019-Jun-13 10:58N 59°27' E 024°46'0 0.0
2019-Jun-13 10:28N 59°27' E 024°46'0 0.0
2019-Jun-13 09:58N 59°27' E 024°46'0 0.0
2019-Jun-13 09:28N 59°27' E 024°46'0 0.0
2019-Jun-13 08:58N 59°27' E 024°46'0 0.0
2019-Jun-13 08:28N 59°27' E 024°46'0 0.0
2019-Jun-13 07:58N 59°27' E 024°46'0 0.0
2019-Jun-13 07:28N 59°27' E 024°46'0 0.0
2019-Jun-13 06:58N 59°27' E 024°46'0 0.0
2019-Jun-13 06:28N 59°27' E 024°46'0 0.0
2019-Jun-13 05:58N 59°27' E 024°46'0 0.0
2019-Jun-13 05:28N 59°27' E 024°46'0 0.0
2019-Jun-13 04:58N 59°27' E 024°46'0 0.0
2019-Jun-13 04:31N 59°27' E 024°46'3 5.8
2019-Jun-13 04:01N 59°30' E 024°45'816.0
2019-Jun-13 03:30N 59°37' E 024°39'713.2
2019-Jun-13 03:00N 59°44' E 024°40'713.0
2019-Jun-13 02:30N 59°49' E 024°47'714.4
2019-Jun-13 02:00N 59°51' E 025°01'815.2
2019-Jun-13 01:30N 59°52' E 025°16'2517.0
2019-Jun-13 00:03N 59°57' E 026°05'417.0
2019-Jun-12 23:49N 59°58' E 026°12'517.2
2019-Jun-12 23:30N 59°59' E 026°22'816.9
2019-Jun-12 23:00N 60°01' E 026°39'917.1
2019-Jun-12 22:30N 59°60' E 026°56'816.2
2019-Jun-12 22:00N 60°02' E 027°11'917.3
2019-Jun-12 21:30N 60°06' E 027°26'917.4
2019-Jun-12 21:00N 60°11' E 027°41'816.5
2019-Jun-12 20:30N 60°11' E 027°57'917.5
2019-Jun-12 20:00N 60°08' E 028°14'917.1
2019-Jun-12 19:30N 60°04' E 028°29'917.0
2019-Jun-12 19:01N 60°03' E 028°46'917.2
2019-Jun-12 18:30N 60°02' E 029°03'1216.4
2019-Jun-12 17:45N 60°02' E 029°28'911.0
2019-Jun-12 16:56N 59°59' E 029°45'510.7
2019-Jun-12 16:30N 59°57' E 029°53'510.0
2019-Jun-12 16:00N 59°56' E 030°03'4 8.5
2019-Jun-12 15:30N 59°57' E 030°11'0 0.2
2019-Jun-12 14:56N 59°57' E 030°12'0 0.0
2019-Jun-12 14:29N 59°57' E 030°12'0 0.0
2019-Jun-12 13:59N 59°57' E 030°12'0 0.0
2019-Jun-12 13:29N 59°57' E 030°12'0 0.0
2019-Jun-12 12:59N 59°57' E 030°12'0 0.0
2019-Jun-12 12:29N 59°57' E 030°12'0 0.0
2019-Jun-12 11:59N 59°57' E 030°12'0 0.0
2019-Jun-12 11:29N 59°57' E 030°12'0 0.0
2019-Jun-12 10:59N 59°57' E 030°12'0 0.0
2019-Jun-12 10:29N 59°57' E 030°12'0 0.0
2019-Jun-12 09:59N 59°57' E 030°12'0 0.0
2019-Jun-12 09:29N 59°57' E 030°12'0 0.0
2019-Jun-12 08:59N 59°57' E 030°12'0 0.0
2019-Jun-12 08:29N 59°57' E 030°12'0 0.0
2019-Jun-12 07:59N 59°57' E 030°12'0 0.0
2019-Jun-12 07:29N 59°57' E 030°12'0 0.0
2019-Jun-12 06:59N 59°57' E 030°12'0 0.0
2019-Jun-12 06:29N 59°57' E 030°12'0 0.0
2019-Jun-12 05:59N 59°57' E 030°12'0 0.0
2019-Jun-12 05:29N 59°57' E 030°12'0 0.0
2019-Jun-12 04:59N 59°57' E 030°12'0 0.0
2019-Jun-12 04:29N 59°57' E 030°12'0 0.0
2019-Jun-12 03:59N 59°57' E 030°12'0 0.0
2019-Jun-12 03:29N 59°57' E 030°12'0 0.0
2019-Jun-12 02:59N 59°57' E 030°12'0 0.0
2019-Jun-12 02:29N 59°57' E 030°12'0 0.0
2019-Jun-12 01:29N 59°57' E 030°12'0 0.0
2019-Jun-12 00:59N 59°57' E 030°12'0 0.0
2019-Jun-12 00:29N 59°57' E 030°12'0 0.0
2019-Jun-11 23:59N 59°57' E 030°12'0 0.0
2019-Jun-11 23:29N 59°57' E 030°12'0 0.0
2019-Jun-11 22:59N 59°57' E 030°12'0 0.0
2019-Jun-11 22:29N 59°57' E 030°12'0 0.0
2019-Jun-11 21:59N 59°57' E 030°12'0 0.0
2019-Jun-11 21:26N 59°57' E 030°12'0 0.0
2019-Jun-11 20:59N 59°57' E 030°12'0 0.0
2019-Jun-11 20:29N 59°57' E 030°12'0 0.0
2019-Jun-11 19:59N 59°57' E 030°12'0 0.0
2019-Jun-11 19:29N 59°57' E 030°12'0 0.0
2019-Jun-11 18:59N 59°57' E 030°12'0 0.0
2019-Jun-11 18:29N 59°57' E 030°12'0 0.0
2019-Jun-11 17:59N 59°57' E 030°12'0 0.0
2019-Jun-11 17:29N 59°57' E 030°12'0 0.0
2019-Jun-11 16:59N 59°57' E 030°12'0 0.0
2019-Jun-11 16:29N 59°57' E 030°12'0 0.0
2019-Jun-11 15:59N 59°57' E 030°12'0 0.0
2019-Jun-11 15:29N 59°57' E 030°12'0 0.0
2019-Jun-11 14:59N 59°57' E 030°12'0 0.0
2019-Jun-11 14:29N 59°57' E 030°12'0 0.0
2019-Jun-11 13:59N 59°57' E 030°12'0 0.0
2019-Jun-11 13:29N 59°57' E 030°12'0 0.0
2019-Jun-11 12:59N 59°57' E 030°12'0 0.0
2019-Jun-11 12:29N 59°57' E 030°12'0 0.0
2019-Jun-11 11:59N 59°57' E 030°12'0 0.0
2019-Jun-11 11:29N 59°57' E 030°12'0 0.0
2019-Jun-11 10:59N 59°57' E 030°12'0 0.0
2019-Jun-11 10:29N 59°57' E 030°12'0 0.0
2019-Jun-11 09:59N 59°57' E 030°12'0 0.0
2019-Jun-11 09:29N 59°57' E 030°12'0 0.0
2019-Jun-11 08:59N 59°57' E 030°12'0 0.0
2019-Jun-11 08:29N 59°57' E 030°12'0 0.0
2019-Jun-11 07:59N 59°57' E 030°12'0 0.0
2019-Jun-11 07:29N 59°57' E 030°12'0 0.0
2019-Jun-11 06:59N 59°57' E 030°12'0 0.0
2019-Jun-11 06:29N 59°57' E 030°12'0 0.0
2019-Jun-11 05:59N 59°57' E 030°12'0 0.0
2019-Jun-11 05:29N 59°57' E 030°12'0 0.0
2019-Jun-11 04:59N 59°57' E 030°12'0 0.0
2019-Jun-11 04:29N 59°57' E 030°12'0 0.3
2019-Jun-11 04:01N 59°57' E 030°11'3 5.2
2019-Jun-11 03:31N 59°57' E 030°06'5 9.2
2019-Jun-11 03:00N 59°56' E 029°57'510.8
2019-Jun-11 02:31N 59°58' E 029°47'1010.6
2019-Jun-11 01:36N 60°01' E 029°29'3 9.6
2019-Jun-11 01:19N 60°02' E 029°24'411.6
2019-Jun-11 01:01N 60°02' E 029°17'612.2
2019-Jun-11 00:31N 60°02' E 029°05'713.3
2019-Jun-11 00:01N 60°02' E 028°51'612.7
2019-Jun-10 23:30N 60°02' E 028°39'612.5
2019-Jun-10 23:01N 60°03' E 028°26'612.5
2019-Jun-10 22:31N 60°07' E 028°17'713.1
2019-Jun-10 22:01N 60°09' E 028°04'713.3
2019-Jun-10 21:31N 60°11' E 027°51'612.7
2019-Jun-10 21:00N 60°08' E 027°39'713.6
2019-Jun-10 20:30N 60°05' E 027°27'713.9
2019-Jun-10 20:01N 60°01' E 027°16'714.5
2019-Jun-10 19:31N 59°58' E 027°03'715.0
2019-Jun-10 19:01N 59°59' E 026°48'714.7
2019-Jun-10 18:31N 59°58' E 026°33'714.9
2019-Jun-10 18:01N 59°56' E 026°19'714.8
2019-Jun-10 17:31N 59°54' E 026°05'714.8
2019-Jun-10 17:01N 59°53' E 025°50'714.8
2019-Jun-10 16:31N 59°52' E 025°35'713.1
2019-Jun-10 16:00N 59°55' E 025°24'715.0
2019-Jun-10 15:31N 59°57' E 025°09'714.2
2019-Jun-10 15:00N 60°01' E 024°58'714.1
2019-Jun-10 14:30N 60°08' E 024°54'2 3.0
2019-Jun-10 13:57N 60°09' E 024°55'0 0.0
2019-Jun-10 13:27N 60°09' E 024°55'0 0.0
2019-Jun-10 12:57N 60°09' E 024°55'0 0.0
2019-Jun-10 12:27N 60°09' E 024°55'0 0.0
2019-Jun-10 11:57N 60°09' E 024°55'0 0.0
2019-Jun-10 11:27N 60°09' E 024°55'0 0.0
2019-Jun-10 10:57N 60°09' E 024°55'0 0.0
2019-Jun-10 10:27N 60°09' E 024°55'0 0.0
2019-Jun-10 09:57N 60°09' E 024°55'0 0.0
2019-Jun-10 09:27N 60°09' E 024°55'0 0.0
2019-Jun-10 08:57N 60°09' E 024°55'0 0.0
2019-Jun-10 08:27N 60°09' E 024°55'0 0.0
2019-Jun-10 07:57N 60°09' E 024°55'0 0.0
2019-Jun-10 07:27N 60°09' E 024°55'0 0.0
2019-Jun-10 06:57N 60°09' E 024°55'0 0.0
2019-Jun-10 06:27N 60°09' E 024°55'0 0.0
2019-Jun-10 05:57N 60°09' E 024°55'0 0.0
2019-Jun-10 05:27N 60°09' E 024°55'1 1.2
2019-Jun-10 05:00N 60°09' E 024°55'5 9.2
2019-Jun-10 04:30N 60°04' E 024°54'612.9
2019-Jun-10 04:00N 59°58' E 024°56'816.3
2019-Jun-10 03:30N 59°50' E 024°55'815.0
2019-Jun-10 03:00N 59°46' E 024°42'917.0
2019-Jun-10 02:30N 59°44' E 024°25'1017.1
2019-Jun-10 01:55N 59°41' E 024°06'716.9
2019-Jun-10 01:30N 59°39' E 023°53'816.9
2019-Jun-10 01:00N 59°37' E 023°37'917.8
2019-Jun-10 00:30N 59°34' E 023°20'918.6
2019-Jun-10 00:00N 59°31' E 023°03'918.6
2019-Jun-09 23:30N 59°28' E 022°46'918.4
2019-Jun-09 23:00N 59°24' E 022°30'1018.5
2019-Jun-09 22:29N 59°18' E 022°14'816.0
2019-Jun-09 22:00N 59°19' E 021°59'918.7
2019-Jun-09 21:30N 59°19' E 021°40'918.8
2019-Jun-09 21:00N 59°18' E 021°22'918.8
2019-Jun-09 20:30N 59°17' E 021°04'918.8
2019-Jun-09 20:00N 59°17' E 020°45'2418.9
2019-Jun-09 18:44N 59°14' E 019°59'518.9
2019-Jun-09 18:29N 59°13' E 019°49'918.8
2019-Jun-09 18:00N 59°13' E 019°32'918.0
2019-Jun-09 17:29N 59°12' E 019°13'611.8
2019-Jun-09 17:00N 59°14' E 019°03'510.2
2019-Jun-09 16:30N 59°16' E 018°54'611.9
2019-Jun-09 16:00N 59°21' E 018°46'611.6
2019-Jun-09 15:31N 59°23' E 018°36'612.1
2019-Jun-09 15:01N 59°26' E 018°26'4 7.3
2019-Jun-09 14:31N 59°23' E 018°27'4 7.6
2019-Jun-09 14:00N 59°23' E 018°19'611.4
2019-Jun-09 13:30N 59°19' E 018°10'2 4.5
2019-Jun-09 12:58N 59°19' E 018°05'0 0.0
2019-Jun-09 12:28N 59°19' E 018°05'0 0.0
2019-Jun-09 11:58N 59°19' E 018°05'0 0.0
2019-Jun-09 11:28N 59°19' E 018°05'0 0.0
2019-Jun-09 10:58N 59°19' E 018°05'0 0.0
2019-Jun-09 10:28N 59°19' E 018°05'0 0.0
2019-Jun-09 09:58N 59°19' E 018°05'0 0.0
2019-Jun-09 09:28N 59°19' E 018°05'0 0.0
2019-Jun-09 08:58N 59°19' E 018°05'0 0.0
2019-Jun-09 08:28N 59°19' E 018°05'0 0.0
2019-Jun-09 07:58N 59°19' E 018°05'0 0.0
2019-Jun-09 07:28N 59°19' E 018°05'0 0.0
2019-Jun-09 06:58N 59°19' E 018°05'0 0.0
2019-Jun-09 06:28N 59°19' E 018°05'0 0.0
2019-Jun-09 05:58N 59°19' E 018°05'0 0.0
2019-Jun-09 05:28N 59°19' E 018°05'0 0.0
2019-Jun-09 04:58N 59°19' E 018°05'0 0.0
2019-Jun-09 03:58N 59°19' E 018°05'0 0.0
2019-Jun-09 03:28N 59°19' E 018°05'0 0.0
2019-Jun-09 02:58N 59°19' E 018°05'0 0.0
2019-Jun-09 02:28N 59°19' E 018°05'0 0.0
2019-Jun-09 01:58N 59°19' E 018°05'0 0.0
2019-Jun-09 01:28N 59°19' E 018°05'0 0.0
2019-Jun-09 00:58N 59°19' E 018°05'0 0.0
2019-Jun-09 00:28N 59°19' E 018°05'0 0.0
2019-Jun-08 23:58N 59°19' E 018°05'0 0.0
2019-Jun-08 23:28N 59°19' E 018°05'0 0.0
2019-Jun-08 22:58N 59°19' E 018°05'0 0.0
2019-Jun-08 22:28N 59°19' E 018°05'0 0.0
2019-Jun-08 21:58N 59°19' E 018°05'0 0.0
2019-Jun-08 21:28N 59°19' E 018°05'0 0.0
2019-Jun-08 20:58N 59°19' E 018°05'0 0.0
2019-Jun-08 20:28N 59°19' E 018°05'0 0.0
2019-Jun-08 19:58N 59°19' E 018°05'0 0.0
2019-Jun-08 19:28N 59°19' E 018°05'0 0.0
2019-Jun-08 18:58N 59°19' E 018°05'0 0.0
2019-Jun-08 18:28N 59°19' E 018°05'0 0.0
2019-Jun-08 17:58N 59°19' E 018°05'0 0.0
2019-Jun-08 17:28N 59°19' E 018°05'0 0.0
2019-Jun-08 16:58N 59°19' E 018°05'0 0.0
2019-Jun-08 16:28N 59°19' E 018°05'0 0.0
2019-Jun-08 15:58N 59°19' E 018°05'0 0.0
2019-Jun-08 15:28N 59°19' E 018°05'0 0.0
2019-Jun-08 14:58N 59°19' E 018°05'0 0.0
2019-Jun-08 14:28N 59°19' E 018°05'0 0.0
2019-Jun-08 13:58N 59°19' E 018°05'0 0.0
2019-Jun-08 13:28N 59°19' E 018°05'0 0.0
2019-Jun-08 12:58N 59°19' E 018°05'0 0.0
2019-Jun-08 12:25N 59°19' E 018°05'0 0.0
2019-Jun-08 11:58N 59°19' E 018°05'0 0.0
2019-Jun-08 11:28N 59°19' E 018°05'0 0.0
2019-Jun-08 10:58N 59°19' E 018°05'0 0.0
2019-Jun-08 10:28N 59°19' E 018°05'0 0.0
2019-Jun-08 09:58N 59°19' E 018°05'0 0.0
2019-Jun-08 09:28N 59°19' E 018°05'0 0.0
2019-Jun-08 08:58N 59°19' E 018°05'0 0.0
2019-Jun-08 08:28N 59°19' E 018°05'0 0.0
2019-Jun-08 07:58N 59°19' E 018°05'0 0.0
2019-Jun-08 07:28N 59°19' E 018°05'0 0.0
2019-Jun-08 06:58N 59°19' E 018°05'0 0.0
2019-Jun-08 06:28N 59°19' E 018°05'0 0.0
2019-Jun-08 05:58N 59°19' E 018°05'0 0.0
2019-Jun-08 05:28N 59°19' E 018°05'0 0.0
2019-Jun-08 04:58N 59°19' E 018°05'0 0.0
2019-Jun-08 04:28N 59°19' E 018°05'0 0.0
2019-Jun-08 03:58N 59°19' E 018°05'0 0.0
2019-Jun-08 03:28N 59°19' E 018°05'0 0.0
2019-Jun-08 02:58N 59°19' E 018°05'0 0.0
2019-Jun-08 02:28N 59°19' E 018°05'0 0.0
2019-Jun-08 01:58N 59°19' E 018°05'0 0.0
2019-Jun-08 01:28N 59°19' E 018°05'0 0.0
2019-Jun-08 00:58N 59°19' E 018°05'0 0.0
2019-Jun-08 00:28N 59°19' E 018°05'0 0.0
2019-Jun-07 23:58N 59°19' E 018°05'0 0.0
2019-Jun-07 23:28N 59°19' E 018°05'0 0.0
2019-Jun-07 22:58N 59°19' E 018°05'0 0.0
2019-Jun-07 22:28N 59°19' E 018°05'0 0.0
2019-Jun-07 21:58N 59°19' E 018°05'0 0.0
2019-Jun-07 21:28N 59°19' E 018°05'0 0.0
2019-Jun-07 20:58N 59°19' E 018°05'0 0.0
2019-Jun-07 20:28N 59°19' E 018°05'0 0.0
2019-Jun-07 19:58N 59°19' E 018°05'0 0.0
2019-Jun-07 19:28N 59°19' E 018°05'0 0.0
2019-Jun-07 18:58N 59°19' E 018°05'0 0.0
2019-Jun-07 18:28N 59°19' E 018°05'0 0.0
2019-Jun-07 17:58N 59°19' E 018°05'0 0.0
2019-Jun-07 17:28N 59°19' E 018°05'0 0.0
2019-Jun-07 16:58N 59°19' E 018°05'0 0.0
2019-Jun-07 16:28N 59°19' E 018°05'0 0.0
2019-Jun-07 15:58N 59°19' E 018°05'0 0.0
2019-Jun-07 15:28N 59°19' E 018°05'0 0.0
2019-Jun-07 14:58N 59°19' E 018°05'0 0.0
2019-Jun-07 14:28N 59°19' E 018°05'0 0.0
2019-Jun-07 13:58N 59°19' E 018°05'0 0.0
2019-Jun-07 13:28N 59°19' E 018°05'0 0.0
2019-Jun-07 12:58N 59°19' E 018°05'0 0.5
2019-Jun-07 12:30N 59°19' E 018°05'1 1.2
2019-Jun-07 12:00N 59°19' E 018°06'0 0.0
2019-Jun-07 11:30N 59°19' E 018°06'0 0.0
2019-Jun-07 11:00N 59°19' E 018°06'0 0.0
2019-Jun-07 10:30N 59°19' E 018°06'0 0.0
2019-Jun-07 09:57N 59°19' E 018°06'0 0.0
2019-Jun-07 09:30N 59°19' E 018°06'0 0.0
2019-Jun-07 09:00N 59°19' E 018°06'0 0.0
2019-Jun-07 08:30N 59°19' E 018°06'0 0.0
2019-Jun-07 07:57N 59°19' E 018°06'0 0.0
2019-Jun-07 07:30N 59°19' E 018°06'0 0.0
2019-Jun-07 07:00N 59°19' E 018°06'0 0.0
2019-Jun-07 06:30N 59°19' E 018°06'2 4.1
2019-Jun-07 06:00N 59°19' E 018°10'510.7
2019-Jun-07 05:30N 59°23' E 018°18'4 8.8
2019-Jun-07 05:00N 59°22' E 018°27'5 9.1
2019-Jun-07 04:30N 59°27' E 018°24'611.6
2019-Jun-07 04:00N 59°23' E 018°34'611.9
2019-Jun-07 03:30N 59°22' E 018°45'713.2
2019-Jun-07 03:00N 59°17' E 018°54'511.2
2019-Jun-07 02:30N 59°14' E 019°03'611.8
2019-Jun-07 02:00N 59°12' E 019°13'1311.5
2019-Jun-07 00:50N 59°12' E 019°40'5313.2
2019-Jun-06 20:48N 59°18' E 021°23'516.8
2019-Jun-06 20:30N 59°20' E 021°32'1316.6
2019-Jun-06 19:43N 59°23' E 021°57'416.7
2019-Jun-06 19:30N 59°25' E 022°04'1716.5
2019-Jun-06 18:29N 59°30' E 022°35'816.6
2019-Jun-06 18:01N 59°33' E 022°49'816.7
2019-Jun-06 17:31N 59°35' E 023°05'816.7
2019-Jun-06 17:00N 59°38' E 023°21'816.7
2019-Jun-06 16:30N 59°40' E 023°37'816.8
2019-Jun-06 16:00N 59°43' E 023°52'817.0
2019-Jun-06 15:31N 59°45' E 024°09'917.2
2019-Jun-06 15:00N 59°48' E 024°25'816.9
2019-Jun-06 14:31N 59°53' E 024°38'917.1
2019-Jun-06 14:01N 59°58' E 024°51'  
Track history (hours):
 
Tides and Currents Weather Stations Pressure Air Temp Water Temp Dewpoint Dewpoint Depression Visibility Wind Speed Wind Dir Waves Ship Positions

Viking Sun

Last reported at 2019-Jun-16 13:39 UTC. Time now 2019-Jun-16 15:00 UTC.
Position N 54°10' E 012°06'.

Length 228 m; draft 6.8 m.

Type: Passenger vessel. MMSI: 257179000.

Date/timePositionNaut miles runAvg speedWind from/ knotsBaromVisibWave heightAir tempDewpointWater temp
2019-Jun-16 13:39N 54°10' E 012°06'0 0.0
2019-Jun-16 13:30N 54°10' E 012°06'0 0.0
2019-Jun-16 12:24N 54°10' E 012°06'0 0.0
2019-Jun-16 12:00N 54°10' E 012°06'0 0.0
2019-Jun-16 11:12N 54°10' E 012°06'0 0.0
2019-Jun-16 10:54N 54°10' E 012°06'0 0.0
2019-Jun-16 09:54N 54°10' E 012°06'0 0.0
2019-Jun-16 09:00N 54°10' E 012°06'0 0.0
2019-Jun-16 06:06N 54°10' E 012°06'0 0.0
2019-Jun-16 05:45N 54°10' E 012°06'0 0.0
2019-Jun-16 05:30N 54°10' E 012°06'0 0.0
2019-Jun-16 05:00N 54°10' E 012°06'0 0.0
2019-Jun-16 04:25N 54°10' E 012°06'2 4.0
2019-Jun-16 03:55N 54°12' E 012°05'4 9.4
2019-Jun-16 03:29N 54°16' E 012°02'714.4
2019-Jun-16 03:00N 54°22' E 011°56'511.2
2019-Jun-16 02:31N 54°26' E 012°04'714.5
2019-Jun-16 02:00N 54°31' E 012°12'815.5
2019-Jun-16 01:30N 54°38' E 012°18'816.6
2019-Jun-16 01:00N 54°43' E 012°30'7617.4
2019-Jun-15 20:39N 54°39' E 014°41'419.0
2019-Jun-15 20:26N 54°40' E 014°48'6518.9
2019-Jun-15 16:59N 54°50' E 016°40'1119.2
2019-Jun-15 16:24N 54°52' E 016°59'819.4
2019-Jun-15 16:01N 54°54' E 017°12'1019.3
2019-Jun-15 15:31N 54°56' E 017°28'919.0
2019-Jun-15 15:01N 54°57' E 017°44'918.8
2019-Jun-15 14:31N 54°58' E 018°01'1019.0
2019-Jun-15 14:00N 54°57' E 018°17'918.9
2019-Jun-15 13:30N 54°58' E 018°34'1019.3
2019-Jun-15 13:01N 54°51' E 018°47'1019.1
2019-Jun-15 12:30N 54°45' E 018°59'917.8
2019-Jun-15 12:01N 54°37' E 018°54'918.2
2019-Jun-15 11:31N 54°29' E 018°45'611.2
2019-Jun-15 11:00N 54°25' E 018°40'0 0.9
2019-Jun-15 10:30N 54°24' E 018°40'0 0.0
2019-Jun-15 10:00N 54°24' E 018°40'0 0.0
2019-Jun-15 09:27N 54°24' E 018°40'0 0.0
2019-Jun-15 09:00N 54°24' E 018°40'0 0.0
2019-Jun-15 08:30N 54°24' E 018°40'0 0.0
2019-Jun-15 08:00N 54°24' E 018°40'0 0.0
2019-Jun-15 07:30N 54°24' E 018°40'0 0.0
2019-Jun-15 07:00N 54°24' E 018°40'0 0.0
2019-Jun-15 06:30N 54°24' E 018°40'0 0.0
2019-Jun-15 06:00N 54°24' E 018°40'0 0.0
2019-Jun-15 05:30N 54°24' E 018°40'0 0.0
2019-Jun-15 05:00N 54°24' E 018°40'0 0.0
2019-Jun-15 04:30N 54°24' E 018°40'0 0.0
2019-Jun-15 04:00N 54°24' E 018°40'0 0.2
2019-Jun-15 03:30N 54°24' E 018°40'1 2.9
2019-Jun-15 03:01N 54°26' E 018°39'2 3.9
2019-Jun-15 02:31N 54°27' E 018°41'611.7
2019-Jun-15 02:00N 54°32' E 018°47'611.9
2019-Jun-15 01:31N 54°36' E 018°54'611.6
2019-Jun-15 01:01N 54°42' E 018°57'611.3
2019-Jun-15 00:31N 54°47' E 019°00'611.1
2019-Jun-15 00:00N 54°52' E 019°03'611.1
2019-Jun-14 23:30N 54°58' E 019°06'611.1
2019-Jun-14 23:01N 55°03' E 019°08'611.2
2019-Jun-14 22:31N 55°08' E 019°11'611.6
2019-Jun-14 22:00N 55°14' E 019°14'712.0
2019-Jun-14 21:27N 55°20' E 019°17'612.3
2019-Jun-14 21:00N 55°26' E 019°20'612.1
2019-Jun-14 20:30N 55°32' E 019°23'612.0
2019-Jun-14 20:00N 55°37' E 019°26'611.8
2019-Jun-14 19:30N 55°43' E 019°29'612.6
2019-Jun-14 19:00N 55°49' E 019°32'612.6
2019-Jun-14 18:30N 55°55' E 019°35'712.6
2019-Jun-14 17:58N 56°02' E 019°39'712.4
2019-Jun-14 17:26N 56°08' E 019°42'512.3
2019-Jun-14 17:00N 56°13' E 019°45'612.3
2019-Jun-14 16:30N 56°19' E 019°48'612.3
2019-Jun-14 15:59N 56°25' E 019°51'9112.3
2019-Jun-14 08:37N 57°51' E 020°40'10311.9
2019-Jun-14 00:00N 59°20' E 022°21'1412.7
2019-Jun-13 22:52N 59°21' E 022°49'512.7
2019-Jun-13 22:30N 59°22' E 022°58'613.1
2019-Jun-13 22:00N 59°23' E 023°11'713.6
2019-Jun-13 21:30N 59°25' E 023°24'713.5
2019-Jun-13 21:00N 59°26' E 023°37'713.4
2019-Jun-13 20:30N 59°28' E 023°50'713.2
2019-Jun-13 20:00N 59°29' E 024°02'713.3
2019-Jun-13 19:30N 59°30' E 024°15'713.8
2019-Jun-13 19:00N 59°30' E 024°29'713.3
2019-Jun-13 18:31N 59°32' E 024°41'510.3
2019-Jun-13 18:00N 59°27' E 024°46'0 0.5
2019-Jun-13 17:28N 59°27' E 024°46'0 0.0
2019-Jun-13 16:58N 59°27' E 024°46'0 0.0
2019-Jun-13 16:28N 59°27' E 024°46'0 0.0
2019-Jun-13 15:58N 59°27' E 024°46'0 0.0
2019-Jun-13 15:28N 59°27' E 024°46'0 0.0
2019-Jun-13 14:58N 59°27' E 024°46'0 0.0
2019-Jun-13 14:28N 59°27' E 024°46'0 0.0
2019-Jun-13 13:58N 59°27' E 024°46'0 0.0
2019-Jun-13 13:28N 59°27' E 024°46'0 0.0
2019-Jun-13 12:58N 59°27' E 024°46'0 0.0
2019-Jun-13 12:28N 59°27' E 024°46'0 0.0
2019-Jun-13 11:58N 59°27' E 024°46'0 0.0
2019-Jun-13 11:28N 59°27' E 024°46'0 0.0
2019-Jun-13 10:58N 59°27' E 024°46'0 0.0
2019-Jun-13 10:28N 59°27' E 024°46'0 0.0
2019-Jun-13 09:58N 59°27' E 024°46'0 0.0
2019-Jun-13 09:28N 59°27' E 024°46'0 0.0
2019-Jun-13 08:58N 59°27' E 024°46'0 0.0
2019-Jun-13 08:28N 59°27' E 024°46'0 0.0
2019-Jun-13 07:58N 59°27' E 024°46'0 0.0
2019-Jun-13 07:28N 59°27' E 024°46'0 0.0
2019-Jun-13 06:58N 59°27' E 024°46'0 0.0
2019-Jun-13 06:28N 59°27' E 024°46'0 0.0
2019-Jun-13 05:58N 59°27' E 024°46'0 0.0
2019-Jun-13 05:28N 59°27' E 024°46'0 0.0
2019-Jun-13 04:58N 59°27' E 024°46'0 0.0
2019-Jun-13 04:31N 59°27' E 024°46'3 5.8
2019-Jun-13 04:01N 59°30' E 024°45'816.0
2019-Jun-13 03:30N 59°37' E 024°39'713.2
2019-Jun-13 03:00N 59°44' E 024°40'713.0
2019-Jun-13 02:30N 59°49' E 024°47'714.4
2019-Jun-13 02:00N 59°51' E 025°01'815.2
2019-Jun-13 01:30N 59°52' E 025°16'2517.0
2019-Jun-13 00:03N 59°57' E 026°05'417.0
2019-Jun-12 23:49N 59°58' E 026°12'517.2
2019-Jun-12 23:30N 59°59' E 026°22'816.9
2019-Jun-12 23:00N 60°01' E 026°39'917.1
2019-Jun-12 22:30N 59°60' E 026°56'816.2
2019-Jun-12 22:00N 60°02' E 027°11'917.3
2019-Jun-12 21:30N 60°06' E 027°26'917.4
2019-Jun-12 21:00N 60°11' E 027°41'816.5
2019-Jun-12 20:30N 60°11' E 027°57'917.5
2019-Jun-12 20:00N 60°08' E 028°14'917.1
2019-Jun-12 19:30N 60°04' E 028°29'917.0
2019-Jun-12 19:01N 60°03' E 028°46'917.2
2019-Jun-12 18:30N 60°02' E 029°03'1216.4
2019-Jun-12 17:45N 60°02' E 029°28'911.0
2019-Jun-12 16:56N 59°59' E 029°45'510.7
2019-Jun-12 16:30N 59°57' E 029°53'510.0
2019-Jun-12 16:00N 59°56' E 030°03'4 8.5
2019-Jun-12 15:30N 59°57' E 030°11'0 0.2
2019-Jun-12 14:56N 59°57' E 030°12'0 0.0
2019-Jun-12 14:29N 59°57' E 030°12'0 0.0
2019-Jun-12 13:59N 59°57' E 030°12'0 0.0
2019-Jun-12 13:29N 59°57' E 030°12'0 0.0
2019-Jun-12 12:59N 59°57' E 030°12'0 0.0
2019-Jun-12 12:29N 59°57' E 030°12'0 0.0
2019-Jun-12 11:59N 59°57' E 030°12'0 0.0
2019-Jun-12 11:29N 59°57' E 030°12'0 0.0
2019-Jun-12 10:59N 59°57' E 030°12'0 0.0
2019-Jun-12 10:29N 59°57' E 030°12'0 0.0
2019-Jun-12 09:59N 59°57' E 030°12'0 0.0
2019-Jun-12 09:29N 59°57' E 030°12'0 0.0
2019-Jun-12 08:59N 59°57' E 030°12'0 0.0
2019-Jun-12 08:29N 59°57' E 030°12'0 0.0
2019-Jun-12 07:59N 59°57' E 030°12'0 0.0
2019-Jun-12 07:29N 59°57' E 030°12'0 0.0
2019-Jun-12 06:59N 59°57' E 030°12'0 0.0
2019-Jun-12 06:29N 59°57' E 030°12'0 0.0
2019-Jun-12 05:59N 59°57' E 030°12'0 0.0
2019-Jun-12 05:29N 59°57' E 030°12'0 0.0
2019-Jun-12 04:59N 59°57' E 030°12'0 0.0
2019-Jun-12 04:29N 59°57' E 030°12'0 0.0
2019-Jun-12 03:59N 59°57' E 030°12'0 0.0
2019-Jun-12 03:29N 59°57' E 030°12'0 0.0
2019-Jun-12 02:59N 59°57' E 030°12'0 0.0
2019-Jun-12 02:29N 59°57' E 030°12'0 0.0
2019-Jun-12 01:29N 59°57' E 030°12'0 0.0
2019-Jun-12 00:59N 59°57' E 030°12'0 0.0
2019-Jun-12 00:29N 59°57' E 030°12'0 0.0
2019-Jun-11 23:59N 59°57' E 030°12'0 0.0
2019-Jun-11 23:29N 59°57' E 030°12'0 0.0
2019-Jun-11 22:59N 59°57' E 030°12'0 0.0
2019-Jun-11 22:29N 59°57' E 030°12'0 0.0
2019-Jun-11 21:59N 59°57' E 030°12'0 0.0
2019-Jun-11 21:26N 59°57' E 030°12'0 0.0
2019-Jun-11 20:59N 59°57' E 030°12'0 0.0
2019-Jun-11 20:29N 59°57' E 030°12'0 0.0
2019-Jun-11 19:59N 59°57' E 030°12'0 0.0
2019-Jun-11 19:29N 59°57' E 030°12'0 0.0
2019-Jun-11 18:59N 59°57' E 030°12'0 0.0
2019-Jun-11 18:29N 59°57' E 030°12'0 0.0
2019-Jun-11 17:59N 59°57' E 030°12'0 0.0
2019-Jun-11 17:29N 59°57' E 030°12'0 0.0
2019-Jun-11 16:59N 59°57' E 030°12'0 0.0
2019-Jun-11 16:29N 59°57' E 030°12'0 0.0
2019-Jun-11 15:59N 59°57' E 030°12'0 0.0
2019-Jun-11 15:29N 59°57' E 030°12'0 0.0
2019-Jun-11 14:59N 59°57' E 030°12'0 0.0
2019-Jun-11 14:29N 59°57' E 030°12'0 0.0
2019-Jun-11 13:59N 59°57' E 030°12'0 0.0
2019-Jun-11 13:29N 59°57' E 030°12'0 0.0
2019-Jun-11 12:59N 59°57' E 030°12'0 0.0
2019-Jun-11 12:29N 59°57' E 030°12'0 0.0
2019-Jun-11 11:59N 59°57' E 030°12'0 0.0
2019-Jun-11 11:29N 59°57' E 030°12'0 0.0
2019-Jun-11 10:59N 59°57' E 030°12'0 0.0
2019-Jun-11 10:29N 59°57' E 030°12'0 0.0
2019-Jun-11 09:59N 59°57' E 030°12'0 0.0
2019-Jun-11 09:29N 59°57' E 030°12'0 0.0
2019-Jun-11 08:59N 59°57' E 030°12'0 0.0
2019-Jun-11 08:29N 59°57' E 030°12'0 0.0
2019-Jun-11 07:59N 59°57' E 030°12'0 0.0
2019-Jun-11 07:29N 59°57' E 030°12'0 0.0
2019-Jun-11 06:59N 59°57' E 030°12'0 0.0
2019-Jun-11 06:29N 59°57' E 030°12'0 0.0
2019-Jun-11 05:59N 59°57' E 030°12'0 0.0
2019-Jun-11 05:29N 59°57' E 030°12'0 0.0
2019-Jun-11 04:59N 59°57' E 030°12'0 0.0
2019-Jun-11 04:29N 59°57' E 030°12'0 0.3
2019-Jun-11 04:01N 59°57' E 030°11'3 5.2
2019-Jun-11 03:31N 59°57' E 030°06'5 9.2
2019-Jun-11 03:00N 59°56' E 029°57'510.8
2019-Jun-11 02:31N 59°58' E 029°47'1010.6
2019-Jun-11 01:36N 60°01' E 029°29'3 9.6
2019-Jun-11 01:19N 60°02' E 029°24'411.6
2019-Jun-11 01:01N 60°02' E 029°17'612.2
2019-Jun-11 00:31N 60°02' E 029°05'713.3
2019-Jun-11 00:01N 60°02' E 028°51'612.7
2019-Jun-10 23:30N 60°02' E 028°39'612.5
2019-Jun-10 23:01N 60°03' E 028°26'612.5
2019-Jun-10 22:31N 60°07' E 028°17'713.1
2019-Jun-10 22:01N 60°09' E 028°04'713.3
2019-Jun-10 21:31N 60°11' E 027°51'612.7
2019-Jun-10 21:00N 60°08' E 027°39'713.6
2019-Jun-10 20:30N 60°05' E 027°27'713.9
2019-Jun-10 20:01N 60°01' E 027°16'714.5
2019-Jun-10 19:31N 59°58' E 027°03'715.0
2019-Jun-10 19:01N 59°59' E 026°48'714.7
2019-Jun-10 18:31N 59°58' E 026°33'714.9
2019-Jun-10 18:01N 59°56' E 026°19'714.8
2019-Jun-10 17:31N 59°54' E 026°05'714.8
2019-Jun-10 17:01N 59°53' E 025°50'714.8
2019-Jun-10 16:31N 59°52' E 025°35'713.1
2019-Jun-10 16:00N 59°55' E 025°24'715.0
2019-Jun-10 15:31N 59°57' E 025°09'714.2
2019-Jun-10 15:00N 60°01' E 024°58'714.1
2019-Jun-10 14:30N 60°08' E 024°54'2 3.0
2019-Jun-10 13:57N 60°09' E 024°55'0 0.0
2019-Jun-10 13:27N 60°09' E 024°55'0 0.0
2019-Jun-10 12:57N 60°09' E 024°55'0 0.0
2019-Jun-10 12:27N 60°09' E 024°55'0 0.0
2019-Jun-10 11:57N 60°09' E 024°55'0 0.0
2019-Jun-10 11:27N 60°09' E 024°55'0 0.0
2019-Jun-10 10:57N 60°09' E 024°55'0 0.0
2019-Jun-10 10:27N 60°09' E 024°55'0 0.0
2019-Jun-10 09:57N 60°09' E 024°55'0 0.0
2019-Jun-10 09:27N 60°09' E 024°55'0 0.0
2019-Jun-10 08:57N 60°09' E 024°55'0 0.0
2019-Jun-10 08:27N 60°09' E 024°55'0 0.0
2019-Jun-10 07:57N 60°09' E 024°55'0 0.0
2019-Jun-10 07:27N 60°09' E 024°55'0 0.0
2019-Jun-10 06:57N 60°09' E 024°55'0 0.0
2019-Jun-10 06:27N 60°09' E 024°55'0 0.0
2019-Jun-10 05:57N 60°09' E 024°55'0 0.0
2019-Jun-10 05:27N 60°09' E 024°55'1 1.2
2019-Jun-10 05:00N 60°09' E 024°55'5 9.2
2019-Jun-10 04:30N 60°04' E 024°54'612.9
2019-Jun-10 04:00N 59°58' E 024°56'816.3
2019-Jun-10 03:30N 59°50' E 024°55'815.0
2019-Jun-10 03:00N 59°46' E 024°42'917.0
2019-Jun-10 02:30N 59°44' E 024°25'1017.1
2019-Jun-10 01:55N 59°41' E 024°06'716.9
2019-Jun-10 01:30N 59°39' E 023°53'816.9
2019-Jun-10 01:00N 59°37' E 023°37'917.8
2019-Jun-10 00:30N 59°34' E 023°20'918.6
2019-Jun-10 00:00N 59°31' E 023°03'918.6
2019-Jun-09 23:30N 59°28' E 022°46'918.4
2019-Jun-09 23:00N 59°24' E 022°30'1018.5
2019-Jun-09 22:29N 59°18' E 022°14'816.0
2019-Jun-09 22:00N 59°19' E 021°59'918.7
2019-Jun-09 21:30N 59°19' E 021°40'918.8
2019-Jun-09 21:00N 59°18' E 021°22'918.8
2019-Jun-09 20:30N 59°17' E 021°04'918.8
2019-Jun-09 20:00N 59°17' E 020°45'2418.9
2019-Jun-09 18:44N 59°14' E 019°59'518.9
2019-Jun-09 18:29N 59°13' E 019°49'918.8
2019-Jun-09 18:00N 59°13' E 019°32'918.0
2019-Jun-09 17:29N 59°12' E 019°13'611.8
2019-Jun-09 17:00N 59°14' E 019°03'510.2
2019-Jun-09 16:30N 59°16' E 018°54'611.9
2019-Jun-09 16:00N 59°21' E 018°46'611.6
2019-Jun-09 15:31N 59°23' E 018°36'612.1
2019-Jun-09 15:01N 59°26' E 018°26'4 7.3
2019-Jun-09 14:31N 59°23' E 018°27'4 7.6
2019-Jun-09 14:00N 59°23' E 018°19'611.4
2019-Jun-09 13:30N 59°19' E 018°10'2 4.5
2019-Jun-09 12:58N 59°19' E 018°05'0 0.0
2019-Jun-09 12:28N 59°19' E 018°05'0 0.0
2019-Jun-09 11:58N 59°19' E 018°05'0 0.0
2019-Jun-09 11:28N 59°19' E 018°05'0 0.0
2019-Jun-09 10:58N 59°19' E 018°05'0 0.0
2019-Jun-09 10:28N 59°19' E 018°05'0 0.0
2019-Jun-09 09:58N 59°19' E 018°05'0 0.0
2019-Jun-09 09:28N 59°19' E 018°05'0 0.0
2019-Jun-09 08:58N 59°19' E 018°05'0 0.0
2019-Jun-09 08:28N 59°19' E 018°05'0 0.0
2019-Jun-09 07:58N 59°19' E 018°05'0 0.0
2019-Jun-09 07:28N 59°19' E 018°05'0 0.0
2019-Jun-09 06:58N 59°19' E 018°05'0 0.0
2019-Jun-09 06:28N 59°19' E 018°05'0 0.0
2019-Jun-09 05:58N 59°19' E 018°05'0 0.0
2019-Jun-09 05:28N 59°19' E 018°05'0 0.0
2019-Jun-09 04:58N 59°19' E 018°05'0 0.0
2019-Jun-09 03:58N 59°19' E 018°05'0 0.0
2019-Jun-09 03:28N 59°19' E 018°05'0 0.0
2019-Jun-09 02:58N 59°19' E 018°05'0 0.0
2019-Jun-09 02:28N 59°19' E 018°05'0 0.0
2019-Jun-09 01:58N 59°19' E 018°05'0 0.0
2019-Jun-09 01:28N 59°19' E 018°05'0 0.0
2019-Jun-09 00:58N 59°19' E 018°05'0 0.0
2019-Jun-09 00:28N 59°19' E 018°05'0 0.0
2019-Jun-08 23:58N 59°19' E 018°05'0 0.0
2019-Jun-08 23:28N 59°19' E 018°05'0 0.0
2019-Jun-08 22:58N 59°19' E 018°05'0 0.0
2019-Jun-08 22:28N 59°19' E 018°05'0 0.0
2019-Jun-08 21:58N 59°19' E 018°05'0 0.0
2019-Jun-08 21:28N 59°19' E 018°05'0 0.0
2019-Jun-08 20:58N 59°19' E 018°05'0 0.0
2019-Jun-08 20:28N 59°19' E 018°05'0 0.0
2019-Jun-08 19:58N 59°19' E 018°05'0 0.0
2019-Jun-08 19:28N 59°19' E 018°05'0 0.0
2019-Jun-08 18:58N 59°19' E 018°05'0 0.0
2019-Jun-08 18:28N 59°19' E 018°05'0 0.0
2019-Jun-08 17:58N 59°19' E 018°05'0 0.0
2019-Jun-08 17:28N 59°19' E 018°05'0 0.0
2019-Jun-08 16:58N 59°19' E 018°05'0 0.0
2019-Jun-08 16:28N 59°19' E 018°05'0 0.0
2019-Jun-08 15:58N 59°19' E 018°05'0 0.0
2019-Jun-08 15:28N 59°19' E 018°05'0 0.0
2019-Jun-08 14:58N 59°19' E 018°05'0 0.0
2019-Jun-08 14:28N 59°19' E 018°05'0 0.0
2019-Jun-08 13:58N 59°19' E 018°05'0 0.0
2019-Jun-08 13:28N 59°19' E 018°05'0 0.0
2019-Jun-08 12:58N 59°19' E 018°05'0 0.0
2019-Jun-08 12:25N 59°19' E 018°05'0 0.0
2019-Jun-08 11:58N 59°19' E 018°05'0 0.0
2019-Jun-08 11:28N 59°19' E 018°05'0 0.0
2019-Jun-08 10:58N 59°19' E 018°05'0 0.0
2019-Jun-08 10:28N 59°19' E 018°05'0 0.0
2019-Jun-08 09:58N 59°19' E 018°05'0 0.0
2019-Jun-08 09:28N 59°19' E 018°05'0 0.0
2019-Jun-08 08:58N 59°19' E 018°05'0 0.0
2019-Jun-08 08:28N 59°19' E 018°05'0 0.0
2019-Jun-08 07:58N 59°19' E 018°05'0 0.0
2019-Jun-08 07:28N 59°19' E 018°05'0 0.0
2019-Jun-08 06:58N 59°19' E 018°05'0 0.0
2019-Jun-08 06:28N 59°19' E 018°05'0 0.0
2019-Jun-08 05:58N 59°19' E 018°05'0 0.0
2019-Jun-08 05:28N 59°19' E 018°05'0 0.0
2019-Jun-08 04:58N 59°19' E 018°05'0 0.0
2019-Jun-08 04:28N 59°19' E 018°05'0 0.0
2019-Jun-08 03:58N 59°19' E 018°05'0 0.0
2019-Jun-08 03:28N 59°19' E 018°05'0 0.0
2019-Jun-08 02:58N 59°19' E 018°05'0 0.0
2019-Jun-08 02:28N 59°19' E 018°05'0 0.0
2019-Jun-08 01:58N 59°19' E 018°05'0 0.0
2019-Jun-08 01:28N 59°19' E 018°05'0 0.0
2019-Jun-08 00:58N 59°19' E 018°05'0 0.0
2019-Jun-08 00:28N 59°19' E 018°05'0 0.0
2019-Jun-07 23:58N 59°19' E 018°05'0 0.0
2019-Jun-07 23:28N 59°19' E 018°05'0 0.0
2019-Jun-07 22:58N 59°19' E 018°05'0 0.0
2019-Jun-07 22:28N 59°19' E 018°05'0 0.0
2019-Jun-07 21:58N 59°19' E 018°05'0 0.0
2019-Jun-07 21:28N 59°19' E 018°05'0 0.0
2019-Jun-07 20:58N 59°19' E 018°05'0 0.0
2019-Jun-07 20:28N 59°19' E 018°05'0 0.0
2019-Jun-07 19:58N 59°19' E 018°05'0 0.0
2019-Jun-07 19:28N 59°19' E 018°05'0 0.0
2019-Jun-07 18:58N 59°19' E 018°05'0 0.0
2019-Jun-07 18:28N 59°19' E 018°05'0 0.0
2019-Jun-07 17:58N 59°19' E 018°05'0 0.0
2019-Jun-07 17:28N 59°19' E 018°05'0 0.0
2019-Jun-07 16:58N 59°19' E 018°05'0 0.0
2019-Jun-07 16:28N 59°19' E 018°05'0 0.0
2019-Jun-07 15:58N 59°19' E 018°05'0 0.0
2019-Jun-07 15:28N 59°19' E 018°05'0 0.0
2019-Jun-07 14:58N 59°19' E 018°05'0 0.0
2019-Jun-07 14:28N 59°19' E 018°05'0 0.0
2019-Jun-07 13:58N 59°19' E 018°05'0 0.0
2019-Jun-07 13:28N 59°19' E 018°05'0 0.0
2019-Jun-07 12:58N 59°19' E 018°05'0 0.5
2019-Jun-07 12:30N 59°19' E 018°05'1 1.2
2019-Jun-07 12:00N 59°19' E 018°06'0 0.0
2019-Jun-07 11:30N 59°19' E 018°06'0 0.0
2019-Jun-07 11:00N 59°19' E 018°06'0 0.0
2019-Jun-07 10:30N 59°19' E 018°06'0 0.0
2019-Jun-07 09:57N 59°19' E 018°06'0 0.0
2019-Jun-07 09:30N 59°19' E 018°06'0 0.0
2019-Jun-07 09:00N 59°19' E 018°06'0 0.0
2019-Jun-07 08:30N 59°19' E 018°06'0 0.0
2019-Jun-07 07:57N 59°19' E 018°06'0 0.0
2019-Jun-07 07:30N 59°19' E 018°06'0 0.0
2019-Jun-07 07:00N 59°19' E 018°06'0 0.0
2019-Jun-07 06:30N 59°19' E 018°06'2 4.1
2019-Jun-07 06:00N 59°19' E 018°10'510.7
2019-Jun-07 05:30N 59°23' E 018°18'4 8.8
2019-Jun-07 05:00N 59°22' E 018°27'5 9.1
2019-Jun-07 04:30N 59°27' E 018°24'611.6
2019-Jun-07 04:00N 59°23' E 018°34'611.9
2019-Jun-07 03:30N 59°22' E 018°45'713.2
2019-Jun-07 03:00N 59°17' E 018°54'511.2
2019-Jun-07 02:30N 59°14' E 019°03'611.8
2019-Jun-07 02:00N 59°12' E 019°13'1311.5
2019-Jun-07 00:50N 59°12' E 019°40'5313.2
2019-Jun-06 20:48N 59°18' E 021°23'516.8
2019-Jun-06 20:30N 59°20' E 021°32'1316.6
2019-Jun-06 19:43N 59°23' E 021°57'416.7
2019-Jun-06 19:30N 59°25' E 022°04'1716.5
2019-Jun-06 18:29N 59°30' E 022°35'816.6
2019-Jun-06 18:01N 59°33' E 022°49'816.7
2019-Jun-06 17:31N 59°35' E 023°05'816.7
2019-Jun-06 17:00N 59°38' E 023°21'816.7
2019-Jun-06 16:30N 59°40' E 023°37'816.8
2019-Jun-06 16:00N 59°43' E 023°52'817.0
2019-Jun-06 15:31N 59°45' E 024°09'917.2
2019-Jun-06 15:00N 59°48' E 024°25'816.9
2019-Jun-06 14:31N 59°53' E 024°38'917.1
2019-Jun-06 14:01N 59°58' E 024°51'  

Dump ship's entire track history